Terminal Aerodrome Forecast
Issued by NWS Blacksburg, VA

Home | Current Version | Previous Version | Text Only | Print | Product List | Glossary On
Versions: 1 2 3 4 5 6 7 8 9 10 11 12 13 14 15 16 17 18 19 20 21 22 23 24 25 26 27 28 29 30 31 32 33 34 35 36 37 38 39 40
000
FTUS41 KRNK 201731
TAFROA
TAF
KROA 201731Z 2018/2118 14005KT P6SM FEW060 BKN250
     FM202000 22008G16KT P6SM SCT060 SCT120
     FM202200 20010KT P6SM SCT050 OVC100
      TEMPO 2023/2101 5SM -SHRA SCT040 OVC080
     FM210400 VRB04KT P6SM BKN040
     FM211500 30010G18KT P6SM VCSH BKN035=

USA.gov is the U.S. government's official web portal to all federal, state and local government web resources and services.